createdAt,value
2022-09-22T00:02:02.412Z,4.18
2022-09-22T00:04:52.437Z,5.40
2022-09-22T00:07:42.528Z,4.72
2022-09-22T00:10:32.842Z,4.70
2022-09-22T00:13:22.918Z,4.22
2022-09-22T00:16:14.357Z,4.88
2022-09-22T00:19:09.195Z,4.70
2022-09-22T00:21:59.925Z,4.15
2022-09-22T00:24:50.096Z,4.93
2022-09-22T00:27:39.946Z,5.00
2022-09-22T00:30:31.205Z,4.57
2022-09-22T00:33:21.111Z,4.40
2022-09-22T00:36:11.298Z,4.45
2022-09-22T00:39:01.337Z,4.18
2022-09-22T00:41:52.373Z,5.05
2022-09-22T00:44:44.448Z,5.38
2022-09-22T00:47:42.325Z,5.28
2022-09-22T00:50:32.437Z,4.88
2022-09-22T00:53:25.151Z,5.05
2022-09-22T00:56:21.491Z,4.60
2022-09-22T00:59:16.032Z,4.78
2022-09-22T01:02:06.915Z,4.95
2022-09-22T01:04:57.526Z,5.25
2022-09-22T01:07:48.814Z,5.00
2022-09-22T01:10:39.701Z,4.57
2022-09-22T01:13:43.510Z,4.65
2022-09-22T01:17:04.945Z,4.95
2022-09-22T01:20:15.184Z,4.22
2022-09-22T01:23:44.533Z,4.43
2022-09-22T01:27:11.697Z,4.80
2022-09-22T01:30:18.919Z,4.05
2022-09-22T01:33:27.671Z,4.85
2022-09-22T01:36:30.014Z,4.70
2022-09-22T01:39:26.196Z,4.50
2022-09-22T01:42:31.245Z,4.68
2022-09-22T01:45:26.140Z,4.55
2022-09-22T01:48:26.559Z,4.82
2022-09-22T01:51:31.060Z,4.82
2022-09-22T01:54:42.034Z,5.28
2022-09-22T01:58:05.226Z,5.07
2022-09-22T02:01:01.083Z,5.20
2022-09-22T02:04:31.999Z,5.65
2022-09-22T02:07:38.869Z,5.05
2022-09-22T02:10:35.615Z,4.65
2022-09-22T02:13:25.949Z,5.25
2022-09-22T02:16:19.722Z,6.00
2022-09-22T02:19:16.813Z,5.45
2022-09-22T02:22:10.444Z,5.43
2022-09-22T02:25:00.516Z,6.20
2022-09-22T02:27:55.098Z,5.40
2022-09-22T02:31:10.420Z,5.53
2022-09-22T02:34:00.687Z,5.38
2022-09-22T02:37:16.425Z,5.38
2022-09-22T02:40:34.484Z,5.63
2022-09-22T02:43:34.936Z,4.35
2022-09-22T02:46:45.947Z,5.13
2022-09-22T02:49:41.460Z,4.38
2022-09-22T02:52:31.881Z,5.05
2022-09-22T02:55:22.360Z,4.88
2022-09-22T02:58:15.377Z,4.65
2022-09-22T03:01:05.811Z,5.10
2022-09-22T03:03:56.064Z,4.82
2022-09-22T03:06:46.084Z,4.82
2022-09-22T03:09:36.034Z,5.60
2022-09-22T03:12:26.121Z,4.97
2022-09-22T03:15:16.268Z,5.22
2022-09-22T03:18:06.613Z,5.28
2022-09-22T03:20:56.499Z,5.47
2022-09-22T03:23:46.434Z,5.40
2022-09-22T03:26:36.814Z,5.75
2022-09-22T03:29:26.777Z,5.07
2022-09-22T03:32:16.597Z,5.03
2022-09-22T03:35:07.388Z,4.90
2022-09-22T03:37:57.750Z,5.07
2022-09-22T03:40:52.645Z,5.68
2022-09-22T03:43:42.907Z,5.25
2022-09-22T03:46:32.837Z,6.07
2022-09-22T03:49:24.794Z,5.20
2022-09-22T03:52:14.651Z,5.13
2022-09-22T03:55:05.125Z,5.55
2022-09-22T03:57:55.625Z,4.85
2022-09-22T04:00:46.153Z,4.75
2022-09-22T04:03:36.784Z,5.55
2022-09-22T04:06:26.755Z,5.10
2022-09-22T04:09:18.329Z,6.47
2022-09-22T04:12:08.753Z,5.40
2022-09-22T04:14:59.104Z,6.07
2022-09-22T04:17:49.274Z,5.70
2022-09-22T04:20:43.340Z,5.88
2022-09-22T04:23:33.508Z,5.43
2022-09-22T04:26:23.746Z,5.38
2022-09-22T04:29:13.907Z,4.75
2022-09-22T04:32:04.086Z,5.15
2022-09-22T04:34:54.451Z,5.03
2022-09-22T04:37:44.947Z,4.90
2022-09-22T04:40:35.274Z,5.25
2022-09-22T04:43:25.454Z,5.38
2022-09-22T04:46:15.566Z,5.57
2022-09-22T04:49:05.606Z,5.30
2022-09-22T04:51:56.087Z,4.65
2022-09-22T04:54:46.189Z,5.00
2022-09-22T04:57:36.065Z,4.72
2022-09-22T05:00:28.358Z,5.38
2022-09-22T05:03:22.116Z,4.63
2022-09-22T05:06:12.776Z,5.13
2022-09-22T05:09:03.515Z,5.35
2022-09-22T05:11:54.340Z,5.70
2022-09-22T05:14:44.496Z,5.10
2022-09-22T05:17:36.174Z,5.50
2022-09-22T05:20:26.989Z,6.60
2022-09-22T05:23:17.898Z,6.43
2022-09-22T05:26:08.313Z,6.45
2022-09-22T05:28:58.094Z,6.25
2022-09-22T05:31:48.150Z,6.30
2022-09-22T05:34:38.247Z,6.00
2022-09-22T05:37:27.979Z,5.88
2022-09-22T05:40:19.076Z,6.50
2022-09-22T05:43:09.494Z,5.68
2022-09-22T05:45:59.356Z,5.22
2022-09-22T05:48:49.385Z,5.50
2022-09-22T05:51:39.518Z,5.85
2022-09-22T05:54:29.917Z,5.63
2022-09-22T05:57:25.374Z,5.50
2022-09-22T06:00:15.439Z,5.60
2022-09-22T06:03:05.641Z,5.38
2022-09-22T06:05:56.109Z,5.22
2022-09-22T06:08:48.817Z,5.85
2022-09-22T06:11:39.467Z,7.05
2022-09-22T06:14:29.393Z,7.07
2022-09-22T06:17:19.327Z,8.48
2022-09-22T06:20:09.346Z,7.43
2022-09-22T06:22:59.962Z,7.45
2022-09-22T06:25:55.796Z,6.80
2022-09-22T06:28:46.899Z,7.05
2022-09-22T06:31:37.661Z,6.32
2022-09-22T06:34:28.152Z,7.30
2022-09-22T06:37:20.251Z,7.78
2022-09-22T06:40:15.283Z,8.25
2022-09-22T06:43:15.099Z,8.65
2022-09-22T06:46:06.087Z,9.18
2022-09-22T06:48:57.541Z,8.80
2022-09-22T06:51:49.425Z,9.25
2022-09-22T06:54:42.064Z,8.93
2022-09-22T06:57:33.012Z,9.00
2022-09-22T07:00:23.165Z,8.93
2022-09-22T07:03:22.449Z,10.00
2022-09-22T07:06:20.221Z,8.93
2022-09-22T07:09:12.287Z,9.40
2022-09-22T07:12:02.425Z,9.63
2022-09-22T07:14:53.301Z,9.20
2022-09-22T07:17:43.266Z,9.30
2022-09-22T07:20:35.731Z,8.65
2022-09-22T07:23:26.159Z,8.30
2022-09-22T07:26:19.888Z,7.18
2022-09-22T07:29:16.713Z,6.22
2022-09-22T07:32:06.987Z,5.88
2022-09-22T07:34:57.849Z,5.35
2022-09-22T07:37:47.928Z,4.85
2022-09-22T07:40:38.366Z,5.10
2022-09-22T07:43:28.812Z,4.82
2022-09-22T07:46:19.935Z,4.90
2022-09-22T07:49:10.111Z,4.85
2022-09-22T07:52:00.916Z,5.07
2022-09-22T07:54:51.079Z,5.22
2022-09-22T07:57:41.493Z,5.60
2022-09-22T08:00:36.367Z,5.43
2022-09-22T08:03:26.860Z,5.50
2022-09-22T08:06:19.467Z,5.32
2022-09-22T08:09:10.351Z,5.80
2022-09-22T08:12:00.518Z,6.32
2022-09-22T08:14:51.431Z,5.68
2022-09-22T08:17:41.441Z,6.13
2022-09-22T08:20:31.210Z,6.88
2022-09-22T08:23:21.584Z,6.82
2022-09-22T08:26:11.893Z,6.90
2022-09-22T08:29:02.556Z,6.80
2022-09-22T08:31:53.886Z,5.50
2022-09-22T08:34:45.311Z,5.30
2022-09-22T08:37:36.782Z,5.35
2022-09-22T08:40:27.275Z,5.03
2022-09-22T08:43:17.556Z,4.50
2022-09-22T08:46:07.736Z,4.22
2022-09-22T08:49:26.865Z,5.00
2022-09-22T08:52:42.194Z,4.30
2022-09-22T08:55:33.135Z,3.75
2022-09-22T08:58:37.213Z,3.08
2022-09-22T09:01:43.391Z,3.63
2022-09-22T09:04:54.385Z,3.53
2022-09-22T09:08:05.466Z,3.80
2022-09-22T09:11:34.531Z,3.22
2022-09-22T09:14:54.071Z,3.13
2022-09-22T09:17:47.654Z,3.25
2022-09-22T09:20:59.454Z,3.15
2022-09-22T09:27:11.271Z,2.60
2022-09-22T09:30:17.785Z,3.15
2022-09-22T09:33:26.247Z,2.20
2022-09-22T09:36:22.663Z,1.90
2022-09-22T09:39:30.474Z,1.88
2022-09-22T09:42:34.785Z,1.88
2022-09-22T09:45:34.716Z,2.15
2022-09-22T09:48:59.474Z,1.73
2022-09-22T09:51:56.480Z,1.85
2022-09-22T09:54:47.368Z,1.33
2022-09-22T09:58:32.912Z,1.30
2022-09-22T10:04:37.366Z,1.00
2022-09-22T10:10:29.256Z,0.80
2022-09-22T10:13:29.522Z,0.90
2022-09-22T10:16:25.147Z,0.90
2022-09-22T10:19:22.507Z,1.15
2022-09-22T10:22:22.792Z,1.00
2022-09-22T10:25:24.097Z,1.42
2022-09-22T10:28:17.032Z,1.23
2022-09-22T10:31:17.921Z,1.50
2022-09-22T10:34:57.087Z,1.48
2022-09-22T10:37:48.415Z,1.27
2022-09-22T10:40:41.913Z,1.10
2022-09-22T10:48:03.504Z,1.50
2022-09-22T10:51:12.522Z,1.13
2022-09-22T10:54:21.458Z,1.15
2022-09-22T10:57:54.591Z,0.93
2022-09-22T11:00:45.145Z,1.25
2022-09-22T11:03:54.952Z,1.15
2022-09-22T11:07:42.355Z,1.55
2022-09-22T11:11:02.841Z,1.30
2022-09-22T11:14:03.986Z,1.13
2022-09-22T11:17:25.701Z,0.90
2022-09-22T11:20:53.756Z,0.90
2022-09-22T11:24:21.159Z,1.05
2022-09-22T11:27:58.296Z,1.20
2022-09-22T11:30:53.346Z,1.17
2022-09-22T11:34:18.393Z,0.93
2022-09-22T11:37:30.077Z,0.95
2022-09-22T11:40:32.890Z,1.42
2022-09-22T11:43:35.198Z,1.45
2022-09-22T11:47:01.056Z,0.98
2022-09-22T11:50:35.450Z,1.20
2022-09-22T11:54:07.433Z,1.20
2022-09-22T11:57:06.271Z,1.10
2022-09-22T12:00:02.186Z,1.20
2022-09-22T12:03:20.117Z,0.93
2022-09-22T12:06:24.260Z,1.23
2022-09-22T12:09:35.768Z,0.95
2022-09-22T12:12:29.810Z,0.90
2022-09-22T12:15:26.326Z,0.93
2022-09-22T12:18:26.478Z,0.88
2022-09-22T12:21:31.358Z,0.95
2022-09-22T12:24:21.450Z,1.00
2022-09-22T12:27:23.615Z,0.80
2022-09-22T12:30:22.610Z,1.27
2022-09-22T12:33:15.885Z,1.45
2022-09-22T12:36:06.916Z,0.90
2022-09-22T12:39:09.360Z,1.20
2022-09-22T12:42:02.627Z,0.80
2022-09-22T12:45:16.853Z,1.02
2022-09-22T12:48:13.230Z,1.10
2022-09-22T12:51:25.183Z,0.90
2022-09-22T12:54:26.249Z,0.90
2022-09-22T12:57:26.987Z,0.80
2022-09-22T13:00:34.677Z,0.70
2022-09-22T13:03:24.579Z,3.00
2022-09-22T13:06:23.663Z,1.00
2022-09-22T13:09:25.956Z,0.90
2022-09-22T13:12:17.932Z,0.73
2022-09-22T13:15:08.052Z,0.88
2022-09-22T13:17:58.859Z,0.68
2022-09-22T13:20:49.332Z,0.90
2022-09-22T13:23:51.738Z,0.77
2022-09-22T13:26:41.842Z,0.90
2022-09-22T13:29:32.630Z,0.70
2022-09-22T13:32:26.858Z,0.98
2022-09-22T13:35:47.033Z,0.70
2022-09-22T13:38:40.951Z,0.70
2022-09-22T13:41:40.955Z,0.55
2022-09-22T13:44:34.247Z,0.90
2022-09-22T13:47:27.952Z,0.60
2022-09-22T13:50:22.420Z,1.02
2022-09-22T13:53:18.837Z,0.70
2022-09-22T13:56:20.769Z,0.80
2022-09-22T13:59:13.812Z,0.68
2022-09-22T14:02:10.225Z,0.60
2022-09-22T14:05:08.002Z,0.90
2022-09-22T14:08:12.075Z,0.90
2022-09-22T14:11:06.377Z,0.93
2022-09-22T14:13:59.881Z,0.70
2022-09-22T14:17:03.885Z,0.80
2022-09-22T14:20:04.039Z,1.00
2022-09-22T14:22:54.797Z,0.80
2022-09-22T14:25:45.421Z,0.95
2022-09-22T14:28:36.938Z,0.85
2022-09-22T14:31:33.069Z,0.80
2022-09-22T14:34:31.229Z,0.70
2022-09-22T14:37:45.558Z,0.70
2022-09-22T14:40:38.049Z,0.90
2022-09-22T14:43:37.153Z,0.80
2022-09-22T14:46:37.356Z,0.80
2022-09-22T14:49:43.250Z,0.90
2022-09-22T14:52:36.677Z,0.60
2022-09-22T14:55:39.226Z,0.75
2022-09-22T14:58:40.414Z,0.80
2022-09-22T15:01:51.198Z,0.63
2022-09-22T15:04:48.447Z,0.98
2022-09-22T15:07:46.272Z,0.98
2022-09-22T15:10:36.963Z,0.80
2022-09-22T15:13:41.646Z,0.80
2022-09-22T15:16:40.210Z,1.00
2022-09-22T15:19:37.615Z,0.80
2022-09-22T15:22:27.682Z,0.80
2022-09-22T15:25:18.025Z,0.95
2022-09-22T15:28:13.209Z,0.82
2022-09-22T15:31:04.815Z,0.82
2022-09-22T15:33:56.309Z,0.70
2022-09-22T15:36:46.881Z,0.70
2022-09-22T15:39:37.029Z,0.80
2022-09-22T15:42:27.835Z,0.70
2022-09-22T15:45:23.460Z,0.80
2022-09-22T15:48:22.707Z,0.88
2022-09-22T15:51:13.568Z,0.80
2022-09-22T15:54:12.831Z,0.90
2022-09-22T15:57:06.460Z,1.00
2022-09-22T15:59:56.688Z,0.77
2022-09-22T16:02:48.192Z,0.70
2022-09-22T16:05:39.539Z,0.80
2022-09-22T16:08:51.654Z,1.10
2022-09-22T16:11:41.819Z,0.80
2022-09-22T16:14:31.810Z,0.90
2022-09-22T16:17:24.096Z,0.80
2022-09-22T16:20:16.357Z,1.15
2022-09-22T16:23:06.890Z,1.10
2022-09-22T16:25:57.063Z,0.90
2022-09-22T16:28:47.205Z,0.70
2022-09-22T16:31:37.556Z,0.82
2022-09-22T16:34:29.218Z,0.95
2022-09-22T16:37:22.421Z,0.80
2022-09-22T16:40:12.580Z,0.90
2022-09-22T16:43:02.808Z,0.85
2022-09-22T16:46:11.277Z,1.13
2022-09-22T16:49:12.061Z,1.00
2022-09-22T16:52:02.353Z,0.98
2022-09-22T16:54:52.688Z,1.00
2022-09-22T16:57:42.443Z,0.98
2022-09-22T17:00:32.626Z,1.00
2022-09-22T17:03:23.721Z,0.80
2022-09-22T17:06:15.809Z,0.98
2022-09-22T17:09:06.765Z,0.93
2022-09-22T17:11:57.852Z,1.10
2022-09-22T17:14:48.521Z,1.00
2022-09-22T17:17:40.307Z,0.90
2022-09-22T17:20:30.550Z,0.95
2022-09-22T17:23:20.758Z,1.02
2022-09-22T17:26:11.775Z,1.10
2022-09-22T17:29:02.085Z,1.10
2022-09-22T17:31:57.216Z,1.02
2022-09-22T17:34:47.516Z,1.40
2022-09-22T17:37:37.719Z,1.15
2022-09-22T17:40:27.792Z,1.20
2022-09-22T17:43:24.275Z,1.35
2022-09-22T17:46:16.860Z,1.42
2022-09-22T17:49:27.067Z,1.40
2022-09-22T17:52:43.835Z,1.40
2022-09-22T17:55:33.717Z,1.30
2022-09-22T17:58:23.837Z,1.55
2022-09-22T18:01:14.134Z,1.67
2022-09-22T18:04:04.387Z,1.30
2022-09-22T18:06:54.577Z,1.55
2022-09-22T18:09:47.047Z,1.65
2022-09-22T18:12:37.300Z,1.92
2022-09-22T18:15:28.009Z,2.80
2022-09-22T18:18:17.903Z,2.20
2022-09-22T18:21:07.643Z,3.83
2022-09-22T18:23:57.678Z,3.90
2022-09-22T18:26:48.807Z,3.20
2022-09-22T18:29:39.374Z,2.30
2022-09-22T18:32:29.309Z,2.38
2022-09-22T18:35:20.072Z,2.45
2022-09-22T18:38:10.103Z,1.83
2022-09-22T18:41:00.456Z,1.90
2022-09-22T18:43:52.953Z,1.80
2022-09-22T18:46:46.512Z,1.67
2022-09-22T18:49:40.346Z,1.77
2022-09-22T18:52:31.496Z,1.75
2022-09-22T18:55:21.283Z,2.50
2022-09-22T18:58:12.212Z,2.00
2022-09-22T19:01:05.042Z,1.67
2022-09-22T19:03:55.340Z,2.00
2022-09-22T19:07:05.873Z,1.80
2022-09-22T19:09:56.478Z,1.63
2022-09-22T19:12:46.877Z,2.00
2022-09-22T19:15:39.972Z,1.90
2022-09-22T19:18:29.913Z,1.88
2022-09-22T19:21:20.413Z,1.60
2022-09-22T19:24:10.867Z,1.80
2022-09-22T19:27:00.913Z,1.65
2022-09-22T19:29:52.517Z,1.75
2022-09-22T19:32:42.613Z,2.42
2022-09-22T19:35:35.962Z,2.28
2022-09-22T19:38:28.562Z,2.00
2022-09-22T19:41:19.078Z,1.88
2022-09-22T19:44:09.435Z,2.38
2022-09-22T19:46:59.685Z,2.33
2022-09-22T19:49:49.943Z,2.03
2022-09-22T19:52:40.124Z,2.22
2022-09-22T19:55:30.344Z,2.30
2022-09-22T19:58:20.545Z,2.40
2022-09-22T20:01:22.005Z,2.08
2022-09-22T20:04:18.564Z,2.25
2022-09-22T20:07:10.939Z,2.30
2022-09-22T20:10:02.811Z,2.67
2022-09-22T20:12:52.857Z,2.33
2022-09-22T20:15:43.147Z,2.70
2022-09-22T20:18:37.230Z,2.95
2022-09-22T20:21:30.413Z,3.25
2022-09-22T20:24:22.797Z,3.15
2022-09-22T20:27:12.696Z,2.97
2022-09-22T20:30:03.764Z,3.10
2022-09-22T20:32:54.247Z,3.47
2022-09-22T20:35:44.760Z,3.47
2022-09-22T20:38:34.815Z,3.90
2022-09-22T20:41:24.946Z,3.70
2022-09-22T20:44:15.035Z,3.55
2022-09-22T20:47:06.137Z,3.15
2022-09-22T20:49:57.024Z,3.70
2022-09-22T20:52:47.858Z,3.55
2022-09-22T20:55:38.778Z,3.83
2022-09-22T20:58:32.204Z,3.88
2022-09-22T21:01:22.254Z,4.07
2022-09-22T21:04:16.156Z,4.25
2022-09-22T21:07:06.208Z,4.05
2022-09-22T21:10:14.923Z,3.55
2022-09-22T21:13:05.257Z,3.85
2022-09-22T21:16:00.700Z,3.35
2022-09-22T21:18:51.533Z,3.72
2022-09-22T21:21:42.105Z,4.00
2022-09-22T21:24:32.496Z,4.38
2022-09-22T21:27:23.653Z,3.90
2022-09-22T21:30:14.117Z,4.28
2022-09-22T21:33:05.505Z,3.92
2022-09-22T21:36:09.145Z,4.20
2022-09-22T21:38:59.995Z,4.32
2022-09-22T21:41:50.271Z,12.98
2022-09-22T21:44:40.102Z,27.83
2022-09-22T21:47:29.913Z,21.15
2022-09-22T21:50:19.746Z,14.70
2022-09-22T21:53:10.378Z,16.20
2022-09-22T21:56:03.507Z,6.45
2022-09-22T21:58:54.383Z,5.82
2022-09-22T22:01:45.287Z,5.15
2022-09-22T22:04:35.845Z,4.78
2022-09-22T22:07:26.232Z,4.45
2022-09-22T22:10:16.346Z,4.35
2022-09-22T22:13:06.664Z,4.45
2022-09-22T22:16:01.014Z,4.13
2022-09-22T22:18:51.912Z,4.70
2022-09-22T22:21:42.698Z,4.47
2022-09-22T22:24:40.729Z,4.53
2022-09-22T22:27:31.097Z,4.55
2022-09-22T22:30:21.765Z,5.00
2022-09-22T22:33:12.363Z,6.88
2022-09-22T22:36:03.613Z,8.80
2022-09-22T22:38:53.736Z,12.35
2022-09-22T22:41:44.517Z,16.45
2022-09-22T22:44:35.316Z,13.30
2022-09-22T22:47:25.699Z,5.20
2022-09-22T22:50:15.681Z,5.00
2022-09-22T22:53:11.154Z,3.85
2022-09-22T22:56:03.951Z,4.30
2022-09-22T22:58:54.175Z,4.60
2022-09-22T23:01:44.360Z,4.53
2022-09-22T23:04:34.583Z,4.15
2022-09-22T23:07:24.527Z,4.82
2022-09-22T23:10:14.854Z,4.85
2022-09-22T23:13:05.296Z,4.60
2022-09-22T23:16:13.834Z,4.55
2022-09-22T23:19:09.348Z,4.95
2022-09-22T23:21:59.428Z,4.93
2022-09-22T23:24:49.304Z,4.82
2022-09-22T23:27:39.205Z,5.00
2022-09-22T23:30:29.313Z,5.22
2022-09-22T23:33:19.472Z,4.60
2022-09-22T23:36:13.136Z,5.28
2022-09-22T23:39:04.478Z,4.95
2022-09-22T23:41:55.157Z,5.57
2022-09-22T23:44:45.682Z,5.35
2022-09-22T23:47:37.374Z,5.63
2022-09-22T23:50:27.723Z,6.93
2022-09-22T23:53:20.016Z,6.88
2022-09-22T23:56:09.952Z,6.82
2022-09-22T23:58:59.999Z,6.00
